sensor_id;sensor_type;location;lat;lon;timestamp;pressure;altitude;pressure_sealevel;temperature;humidity
9423;BME280;65863;49.506;10.400;2023-02-04T00:01:35;99060.50;;;4.81;83.53
9423;BME280;65863;49.506;10.400;2023-02-04T00:04:19;99070.91;;;4.81;83.66
9423;BME280;65863;49.506;10.400;2023-02-04T00:07:03;99060.13;;;4.68;83.35
9423;BME280;65863;49.506;10.400;2023-02-04T00:09:47;99067.06;;;4.78;83.46
9423;BME280;65863;49.506;10.400;2023-02-04T00:12:32;99002.63;;;4.39;83.33
9423;BME280;65863;49.506;10.400;2023-02-04T00:15:17;99018.53;;;4.59;83.07
9423;BME280;65863;49.506;10.400;2023-02-04T00:18:01;99051.13;;;4.79;82.87
9423;BME280;65863;49.506;10.400;2023-02-04T00:20:46;99012.84;;;4.47;82.67
9423;BME280;65863;49.506;10.400;2023-02-04T00:23:30;99058.44;;;4.76;82.61
9423;BME280;65863;49.506;10.400;2023-02-04T00:26:14;99071.31;;;4.74;82.76
9423;BME280;65863;49.506;10.400;2023-02-04T00:28:59;99087.59;;;4.81;82.29
9423;BME280;65863;49.506;10.400;2023-02-04T00:31:43;99079.00;;;4.85;82.16
9423;BME280;65863;49.506;10.400;2023-02-04T00:34:27;99063.16;;;4.70;82.40
9423;BME280;65863;49.506;10.400;2023-02-04T00:37:11;99095.88;;;4.75;82.46
9423;BME280;65863;49.506;10.400;2023-02-04T00:39:55;99086.97;;;4.71;82.55
9423;BME280;65863;49.506;10.400;2023-02-04T00:42:39;99048.84;;;4.36;82.74
9423;BME280;65863;49.506;10.400;2023-02-04T00:45:23;99056.13;;;4.34;82.91
9423;BME280;65863;49.506;10.400;2023-02-04T00:48:08;99082.50;;;4.59;83.13
9423;BME280;65863;49.506;10.400;2023-02-04T00:50:52;99083.31;;;4.44;83.57
9423;BME280;65863;49.506;10.400;2023-02-04T00:53:37;98998.59;;;3.84;83.97
9423;BME280;65863;49.506;10.400;2023-02-04T00:56:20;99073.09;;;4.36;84.39
9423;BME280;65863;49.506;10.400;2023-02-04T00:59:04;99100.97;;;4.41;84.39
9423;BME280;65863;49.506;10.400;2023-02-04T01:01:49;99044.75;;;3.96;84.54
9423;BME280;65863;49.506;10.400;2023-02-04T01:04:34;99092.00;;;4.31;84.67
9423;BME280;65863;49.506;10.400;2023-02-04T01:07:18;99104.66;;;4.33;84.37
9423;BME280;65863;49.506;10.400;2023-02-04T01:10:02;98989.66;;;3.59;84.17
9423;BME280;65863;49.506;10.400;2023-02-04T01:12:46;99088.84;;;4.24;84.28
9423;BME280;65863;49.506;10.400;2023-02-04T01:15:30;99072.09;;;4.18;84.18
9423;BME280;65863;49.506;10.400;2023-02-04T01:18:15;99101.00;;;4.26;84.25
9423;BME280;65863;49.506;10.400;2023-02-04T01:20:59;99082.34;;;4.27;83.77
9423;BME280;65863;49.506;10.400;2023-02-04T01:23:43;99105.16;;;4.31;83.46
9423;BME280;65863;49.506;10.400;2023-02-04T01:26:27;99117.28;;;4.34;83.33
9423;BME280;65863;49.506;10.400;2023-02-04T01:29:11;99085.91;;;4.12;83.36
9423;BME280;65863;49.506;10.400;2023-02-04T01:31:55;99122.94;;;4.39;83.45
9423;BME280;65863;49.506;10.400;2023-02-04T01:34:40;99131.97;;;4.34;83.26
9423;BME280;65863;49.506;10.400;2023-02-04T01:37:24;99100.38;;;4.17;83.34
9423;BME280;65863;49.506;10.400;2023-02-04T01:40:10;99133.41;;;4.29;83.25
9423;BME280;65863;49.506;10.400;2023-02-04T01:42:54;99118.00;;;4.13;83.22
9423;BME280;65863;49.506;10.400;2023-02-04T01:45:38;99117.75;;;4.11;82.61
9423;BME280;65863;49.506;10.400;2023-02-04T01:48:22;99132.06;;;4.25;82.68
9423;BME280;65863;49.506;10.400;2023-02-04T01:51:10;99086.91;;;3.94;81.77
9423;BME280;65863;49.506;10.400;2023-02-04T01:53:55;99140.41;;;4.25;81.88
9423;BME280;65863;49.506;10.400;2023-02-04T01:56:42;99156.78;;;4.38;81.63
9423;BME280;65863;49.506;10.400;2023-02-04T01:59:27;99157.00;;;4.34;81.33
9423;BME280;65863;49.506;10.400;2023-02-04T02:02:41;99133.09;;;4.42;81.20
9423;BME280;65863;49.506;10.400;2023-02-04T02:08:20;99151.31;;;4.43;80.58
9423;BME280;65863;49.506;10.400;2023-02-04T02:11:04;99148.53;;;4.43;80.40
9423;BME280;65863;49.506;10.400;2023-02-04T02:13:49;99059.63;;;3.93;80.57
9423;BME280;65863;49.506;10.400;2023-02-04T02:16:34;99127.53;;;4.42;80.44
9423;BME280;65863;49.506;10.400;2023-02-04T02:19:26;99056.13;;;3.98;80.16
9423;BME280;65863;49.506;10.400;2023-02-04T02:22:24;99148.19;;;4.56;79.78
9423;BME280;65863;49.506;10.400;2023-02-04T02:25:13;99072.53;;;3.96;80.08
9423;BME280;65863;49.506;10.400;2023-02-04T02:28:00;99158.13;;;4.42;80.23
9423;BME280;65863;49.506;10.400;2023-02-04T02:30:46;99164.94;;;4.41;80.60
9423;BME280;65863;49.506;10.400;2023-02-04T02:33:32;99173.84;;;4.45;80.84
9423;BME280;65863;49.506;10.400;2023-02-04T02:36:16;99181.41;;;4.45;80.89
9423;BME280;65863;49.506;10.400;2023-02-04T02:39:00;99187.63;;;4.55;81.12
9423;BME280;65863;49.506;10.400;2023-02-04T02:41:44;99190.97;;;4.59;80.80
9423;BME280;65863;49.506;10.400;2023-02-04T02:44:29;99195.69;;;4.53;80.83
9423;BME280;65863;49.506;10.400;2023-02-04T02:47:16;99209.69;;;4.58;80.57
9423;BME280;65863;49.506;10.400;2023-02-04T02:50:02;99209.19;;;4.60;79.91
9423;BME280;65863;49.506;10.400;2023-02-04T02:52:46;99221.84;;;4.61;80.03
9423;BME280;65863;49.506;10.400;2023-02-04T02:55:31;99218.28;;;4.60;79.91
9423;BME280;65863;49.506;10.400;2023-02-04T03:01:05;99201.25;;;4.53;79.24
9423;BME280;65863;49.506;10.400;2023-02-04T03:03:52;99215.91;;;4.53;79.08
9423;BME280;65863;49.506;10.400;2023-02-04T03:06:36;99226.72;;;4.66;79.05
9423;BME280;65863;49.506;10.400;2023-02-04T03:09:19;99234.22;;;4.60;79.27
9423;BME280;65863;49.506;10.400;2023-02-04T03:12:04;99228.50;;;4.48;79.17
9423;BME280;65863;49.506;10.400;2023-02-04T03:14:49;99229.84;;;4.38;79.69
9423;BME280;65863;49.506;10.400;2023-02-04T03:17:33;99237.50;;;4.43;79.95
9423;BME280;65863;49.506;10.400;2023-02-04T03:20:18;99150.81;;;3.79;80.14
9423;BME280;65863;49.506;10.400;2023-02-04T03:23:02;99219.13;;;4.16;80.70
9423;BME280;65863;49.506;10.400;2023-02-04T03:25:47;99251.91;;;4.27;80.81
9423;BME280;65863;49.506;10.400;2023-02-04T03:28:32;99228.03;;;4.05;81.04
9423;BME280;65863;49.506;10.400;2023-02-04T03:31:16;99245.00;;;4.07;81.29
9423;BME280;65863;49.506;10.400;2023-02-04T03:34:00;99246.81;;;4.10;81.62
9423;BME280;65863;49.506;10.400;2023-02-04T03:36:44;99247.47;;;4.05;81.38
9423;BME280;65863;49.506;10.400;2023-02-04T03:39:28;99243.66;;;4.03;81.41
9423;BME280;65863;49.506;10.400;2023-02-04T03:42:12;99242.41;;;4.04;81.30
9423;BME280;65863;49.506;10.400;2023-02-04T03:44:56;99281.34;;;4.19;81.24
9423;BME280;65863;49.506;10.400;2023-02-04T03:47:43;99245.97;;;4.04;81.14
9423;BME280;65863;49.506;10.400;2023-02-04T03:50:27;99287.75;;;4.25;80.94
9423;BME280;65863;49.506;10.400;2023-02-04T03:53:11;99266.00;;;4.08;81.07
9423;BME280;65863;49.506;10.400;2023-02-04T03:55:56;99262.63;;;4.04;80.40
9423;BME280;65863;49.506;10.400;2023-02-04T03:58:40;99270.78;;;4.08;80.41
9423;BME280;65863;49.506;10.400;2023-02-04T04:01:24;99258.00;;;4.01;80.40
9423;BME280;65863;49.506;10.400;2023-02-04T04:04:08;99297.53;;;4.20;80.23
9423;BME280;65863;49.506;10.400;2023-02-04T04:06:52;99293.31;;;4.10;80.76
9423;BME280;65863;49.506;10.400;2023-02-04T04:09:36;99310.75;;;4.10;80.54
9423;BME280;65863;49.506;10.400;2023-02-04T04:12:20;99296.47;;;4.03;80.72
9423;BME280;65863;49.506;10.400;2023-02-04T04:15:04;99315.34;;;4.13;80.49
9423;BME280;65863;49.506;10.400;2023-02-04T04:17:49;99274.84;;;3.83;80.65
9423;BME280;65863;49.506;10.400;2023-02-04T04:20:33;99213.69;;;3.38;80.56
9423;BME280;65863;49.506;10.400;2023-02-04T04:23:17;99298.25;;;3.91;80.44
9423;BME280;65863;49.506;10.400;2023-02-04T04:26:01;99327.22;;;3.99;80.45
9423;BME280;65863;49.506;10.400;2023-02-04T04:28:44;99309.47;;;3.82;80.60
9423;BME280;65863;49.506;10.400;2023-02-04T04:31:28;99333.53;;;4.00;80.46
9423;BME280;65863;49.506;10.400;2023-02-04T04:34:12;99336.03;;;3.97;80.41
9423;BME280;65863;49.506;10.400;2023-02-04T04:36:56;99325.06;;;3.94;80.24
9423;BME280;65863;49.506;10.400;2023-02-04T04:39:40;99326.63;;;3.95;80.20
9423;BME280;65863;49.506;10.400;2023-02-04T04:42:25;99315.66;;;3.76;79.95
9423;BME280;65863;49.506;10.400;2023-02-04T04:45:10;99362.97;;;4.06;80.01
9423;BME280;65863;49.506;10.400;2023-02-04T04:47:54;99353.44;;;3.98;79.78
9423;BME280;65863;49.506;10.400;2023-02-04T04:50:38;99362.09;;;4.00;79.37
9423;BME280;65863;49.506;10.400;2023-02-04T04:53:22;99345.00;;;3.92;79.42
9423;BME280;65863;49.506;10.400;2023-02-04T04:56:06;99353.22;;;3.87;79.38
9423;BME280;65863;49.506;10.400;2023-02-04T04:58:50;99341.66;;;3.64;79.53
9423;BME280;65863;49.506;10.400;2023-02-04T05:01:34;99337.16;;;3.67;79.44
9423;BME280;65863;49.506;10.400;2023-02-04T05:04:18;99319.53;;;3.55;79.63
9423;BME280;65863;49.506;10.400;2023-02-04T05:07:02;99349.75;;;3.77;79.61
9423;BME280;65863;49.506;10.400;2023-02-04T05:09:47;99304.44;;;3.47;79.52
9423;BME280;65863;49.506;10.400;2023-02-04T05:12:31;99311.59;;;3.38;79.21
9423;BME280;65863;49.506;10.400;2023-02-04T05:15:15;99350.19;;;3.60;79.58
9423;BME280;65863;49.506;10.400;2023-02-04T05:17:59;99384.47;;;3.82;79.48
9423;BME280;65863;49.506;10.400;2023-02-04T05:20:43;99387.84;;;3.86;79.54
9423;BME280;65863;49.506;10.400;2023-02-04T05:23:27;99352.41;;;3.71;79.30
9423;BME280;65863;49.506;10.400;2023-02-04T05:26:11;99386.34;;;3.75;79.34
9423;BME280;65863;49.506;10.400;2023-02-04T05:28:55;99352.00;;;3.64;79.03
9423;BME280;65863;49.506;10.400;2023-02-04T05:31:39;99381.22;;;3.83;79.38
9423;BME280;65863;49.506;10.400;2023-02-04T05:34:23;99370.97;;;3.65;79.30
9423;BME280;65863;49.506;10.400;2023-02-04T05:37:07;99395.38;;;3.85;79.10
9423;BME280;65863;49.506;10.400;2023-02-04T05:39:51;99400.78;;;3.89;79.05
9423;BME280;65863;49.506;10.400;2023-02-04T05:42:35;99399.31;;;3.78;79.00
9423;BME280;65863;49.506;10.400;2023-02-04T05:45:19;99340.25;;;3.44;78.92
9423;BME280;65863;49.506;10.400;2023-02-04T05:48:03;99414.72;;;3.79;78.83
9423;BME280;65863;49.506;10.400;2023-02-04T05:50:47;99410.41;;;3.78;78.66
9423;BME280;65863;49.506;10.400;2023-02-04T05:53:31;99424.88;;;3.83;78.85
9423;BME280;65863;49.506;10.400;2023-02-04T05:56:15;99431.09;;;3.77;78.99
9423;BME280;65863;49.506;10.400;2023-02-04T05:58:59;99427.53;;;3.77;78.92
9423;BME280;65863;49.506;10.400;2023-02-04T06:01:43;99449.72;;;3.86;78.66
9423;BME280;65863;49.506;10.400;2023-02-04T06:04:27;99432.03;;;3.74;78.72
9423;BME280;65863;49.506;10.400;2023-02-04T06:07:11;99448.84;;;3.80;78.42
9423;BME280;65863;49.506;10.400;2023-02-04T06:09:55;99392.75;;;3.33;78.43
9423;BME280;65863;49.506;10.400;2023-02-04T06:12:39;99436.09;;;3.64;78.38
9423;BME280;65863;49.506;10.400;2023-02-04T06:15:23;99460.78;;;3.62;78.55
9423;BME280;65863;49.506;10.400;2023-02-04T06:18:07;99476.78;;;3.76;78.33
9423;BME280;65863;49.506;10.400;2023-02-04T06:20:52;99496.09;;;3.71;78.28
9423;BME280;65863;49.506;10.400;2023-02-04T06:23:36;99474.97;;;3.64;78.00
9423;BME280;65863;49.506;10.400;2023-02-04T06:26:20;99454.38;;;3.47;78.30
9423;BME280;65863;49.506;10.400;2023-02-04T06:29:04;99476.44;;;3.50;78.17
9423;BME280;65863;49.506;10.400;2023-02-04T06:31:48;99497.97;;;3.65;78.51
9423;BME280;65863;49.506;10.400;2023-02-04T06:34:32;99486.41;;;3.57;78.51
9423;BME280;65863;49.506;10.400;2023-02-04T06:37:16;99484.16;;;3.46;78.70
9423;BME280;65863;49.506;10.400;2023-02-04T06:40:00;99490.63;;;3.43;78.98
9423;BME280;65863;49.506;10.400;2023-02-04T06:42:44;99502.94;;;3.51;79.25
9423;BME280;65863;49.506;10.400;2023-02-04T06:45:28;99477.94;;;3.08;79.80
9423;BME280;65863;49.506;10.400;2023-02-04T06:48:12;99492.44;;;3.13;80.30
9423;BME280;65863;49.506;10.400;2023-02-04T06:50:56;99450.59;;;2.64;81.16
9423;BME280;65863;49.506;10.400;2023-02-04T06:53:40;99474.00;;;2.72;81.65
9423;BME280;65863;49.506;10.400;2023-02-04T06:56:26;99530.66;;;3.08;81.92
9423;BME280;65863;49.506;10.400;2023-02-04T06:59:12;99529.91;;;3.08;82.83
9423;BME280;65863;49.506;10.400;2023-02-04T07:01:56;99550.09;;;3.08;83.02
9423;BME280;65863;49.506;10.400;2023-02-04T07:04:40;99511.59;;;2.73;83.51
9423;BME280;65863;49.506;10.400;2023-02-04T07:07:26;99545.47;;;2.96;83.64
9423;BME280;65863;49.506;10.400;2023-02-04T07:10:10;99476.47;;;2.52;83.70
9423;BME280;65863;49.506;10.400;2023-02-04T07:12:54;99573.22;;;3.05;84.40
9423;BME280;65863;49.506;10.400;2023-02-04T07:15:38;99498.03;;;2.57;84.28
9423;BME280;65863;49.506;10.400;2023-02-04T07:18:22;99581.09;;;3.07;84.61
9423;BME280;65863;49.506;10.400;2023-02-04T07:21:06;99484.47;;;2.40;84.88
9423;BME280;65863;49.506;10.400;2023-02-04T07:23:50;99541.47;;;2.69;85.01
9423;BME280;65863;49.506;10.400;2023-02-04T07:26:34;99512.53;;;2.80;85.15
9423;BME280;65863;49.506;10.400;2023-02-04T07:29:19;99608.69;;;3.29;85.01
9423;BME280;65863;49.506;10.400;2023-02-04T07:32:03;99580.13;;;3.28;85.51
9423;BME280;65863;49.506;10.400;2023-02-04T07:34:47;99560.41;;;3.17;85.46
9423;BME280;65863;49.506;10.400;2023-02-04T07:37:31;99529.75;;;3.02;85.31
9423;BME280;65863;49.506;10.400;2023-02-04T07:40:15;99622.97;;;3.55;84.98
9423;BME280;65863;49.506;10.400;2023-02-04T07:42:59;99527.91;;;2.99;85.13
9423;BME280;65863;49.506;10.400;2023-02-04T07:45:44;99579.94;;;3.41;84.71
9423;BME280;65863;49.506;10.400;2023-02-04T07:48:28;99564.22;;;3.38;84.59
9423;BME280;65863;49.506;10.400;2023-02-04T07:51:13;99530.66;;;3.18;84.49
9423;BME280;65863;49.506;10.400;2023-02-04T07:53:57;99597.50;;;3.66;84.26
9423;BME280;65863;49.506;10.400;2023-02-04T07:56:41;99605.81;;;3.66;84.10
9423;BME280;65863;49.506;10.400;2023-02-04T07:59:25;99644.50;;;3.88;83.37
9423;BME280;65863;49.506;10.400;2023-02-04T08:02:09;99640.66;;;3.76;83.30
9423;BME280;65863;49.506;10.400;2023-02-04T08:04:54;99632.66;;;3.60;83.16
9423;BME280;65863;49.506;10.400;2023-02-04T08:07:38;99627.47;;;3.43;83.44
9423;BME280;65863;49.506;10.400;2023-02-04T08:10:22;99571.38;;;2.65;82.79
9423;BME280;65863;49.506;10.400;2023-02-04T08:13:06;99565.19;;;2.43;82.99
9423;BME280;65863;49.506;10.400;2023-02-04T08:15:50;99671.44;;;3.08;82.79
9423;BME280;65863;49.506;10.400;2023-02-04T08:18:37;99683.00;;;3.06;82.90
9423;BME280;65863;49.506;10.400;2023-02-04T08:21:20;99653.69;;;3.05;82.92
9423;BME280;65863;49.506;10.400;2023-02-04T08:24:04;99640.56;;;2.78;83.06
9423;BME280;65863;49.506;10.400;2023-02-04T08:26:48;99685.91;;;3.21;82.95
9423;BME280;65863;49.506;10.400;2023-02-04T08:29:32;99698.09;;;3.24;82.93
9423;BME280;65863;49.506;10.400;2023-02-04T08:32:16;99637.81;;;2.97;82.69
9423;BME280;65863;49.506;10.400;2023-02-04T08:35:00;99642.59;;;2.87;82.62
9423;BME280;65863;49.506;10.400;2023-02-04T08:37:44;99635.34;;;2.89;82.73
9423;BME280;65863;49.506;10.400;2023-02-04T08:40:28;99673.16;;;3.33;82.61
9423;BME280;65863;49.506;10.400;2023-02-04T08:43:12;99685.31;;;3.26;82.57
9423;BME280;65863;49.506;10.400;2023-02-04T08:45:56;99722.00;;;3.40;82.32
9423;BME280;65863;49.506;10.400;2023-02-04T08:48:41;99707.53;;;3.26;81.94
9423;BME280;65863;49.506;10.400;2023-02-04T08:51:26;99727.56;;;3.58;82.15
9423;BME280;65863;49.506;10.400;2023-02-04T08:54:10;99741.94;;;3.66;82.44
9423;BME280;65863;49.506;10.400;2023-02-04T08:56:53;99678.97;;;3.26;82.24
9423;BME280;65863;49.506;10.400;2023-02-04T08:59:37;99741.59;;;3.83;82.04
9423;BME280;65863;49.506;10.400;2023-02-04T09:02:21;99729.13;;;3.69;81.77
9423;BME280;65863;49.506;10.400;2023-02-04T09:05:05;99732.38;;;3.67;81.66
9423;BME280;65863;49.506;10.400;2023-02-04T09:07:50;99740.56;;;3.61;81.28
9423;BME280;65863;49.506;10.400;2023-02-04T09:10:34;99723.72;;;3.37;81.04
9423;BME280;65863;49.506;10.400;2023-02-04T09:13:18;99725.25;;;3.38;81.08
9423;BME280;65863;49.506;10.400;2023-02-04T09:16:02;99774.78;;;3.58;80.96
9423;BME280;65863;49.506;10.400;2023-02-04T09:18:46;99762.13;;;3.48;80.61
9423;BME280;65863;49.506;10.400;2023-02-04T09:21:30;99766.75;;;3.42;80.48
9423;BME280;65863;49.506;10.400;2023-02-04T09:24:14;99698.22;;;3.02;80.21
9423;BME280;65863;49.506;10.400;2023-02-04T09:26:58;99752.41;;;3.53;80.41
9423;BME280;65863;49.506;10.400;2023-02-04T09:29:42;99661.25;;;3.05;79.95
9423;BME280;65863;49.506;10.400;2023-02-04T09:32:26;99776.59;;;4.08;79.35
9423;BME280;65863;49.506;10.400;2023-02-04T09:35:10;99788.69;;;3.95;78.59
9423;BME280;65863;49.506;10.400;2023-02-04T09:37:54;99806.13;;;3.96;78.27
9423;BME280;65863;49.506;10.400;2023-02-04T09:40:45;99707.81;;;3.47;77.54
9423;BME280;65863;49.506;10.400;2023-02-04T09:43:33;99825.22;;;4.40;77.77
9423;BME280;65863;49.506;10.400;2023-02-04T09:46:23;99793.09;;;4.21;77.29
9423;BME280;65863;49.506;10.400;2023-02-04T09:49:11;99792.69;;;3.94;76.43
9423;BME280;65863;49.506;10.400;2023-02-04T09:51:57;99822.59;;;4.37;76.55
9423;BME280;65863;49.506;10.400;2023-02-04T09:54:41;99824.91;;;4.38;76.27
9423;BME280;65863;49.506;10.400;2023-02-04T09:57:26;99788.88;;;4.53;75.79
9423;BME280;65863;49.506;10.400;2023-02-04T10:00:16;99844.31;;;4.66;75.08
9423;BME280;65863;49.506;10.400;2023-02-04T10:03:01;99846.63;;;4.68;74.24
9423;BME280;65863;49.506;10.400;2023-02-04T10:05:46;99732.66;;;3.88;73.67
9423;BME280;65863;49.506;10.400;2023-02-04T10:08:32;99638.59;;;3.06;73.35
9423;BME280;65863;49.506;10.400;2023-02-04T10:11:17;99823.47;;;4.52;73.37
9423;BME280;65863;49.506;10.400;2023-02-04T10:14:03;99783.53;;;4.22;73.24
9423;BME280;65863;49.506;10.400;2023-02-04T10:16:59;99827.38;;;4.45;72.65
9423;BME280;65863;49.506;10.400;2023-02-04T10:19:43;99814.13;;;3.94;72.32
9423;BME280;65863;49.506;10.400;2023-02-04T10:22:27;99771.56;;;3.69;72.06
9423;BME280;65863;49.506;10.400;2023-02-04T10:25:17;99824.00;;;4.23;72.29
9423;BME280;65863;49.506;10.400;2023-02-04T10:28:01;99816.13;;;4.12;71.45
9423;BME280;65863;49.506;10.400;2023-02-04T10:30:46;99853.78;;;4.41;71.12
9423;BME280;65863;49.506;10.400;2023-02-04T10:33:30;99801.00;;;4.04;70.68
9423;BME280;65863;49.506;10.400;2023-02-04T10:36:15;99844.91;;;4.70;70.73
9423;BME280;65863;49.506;10.400;2023-02-04T10:39:04;99770.53;;;4.28;70.19
9423;BME280;65863;49.506;10.400;2023-02-04T10:41:56;99843.41;;;4.60;69.52
9423;BME280;65863;49.506;10.400;2023-02-04T10:44:45;99772.56;;;4.18;69.03
9423;BME280;65863;49.506;10.400;2023-02-04T10:47:30;99845.59;;;4.46;69.19
9423;BME280;65863;49.506;10.400;2023-02-04T10:50:17;99837.44;;;4.86;69.34
9423;BME280;65863;49.506;10.400;2023-02-04T10:53:01;99824.28;;;4.86;68.66
9423;BME280;65863;49.506;10.400;2023-02-04T10:56:13;99834.06;;;4.81;67.76
9423;BME280;65863;49.506;10.400;2023-02-04T10:58:58;99817.63;;;4.41;66.79
9423;BME280;65863;49.506;10.400;2023-02-04T11:01:42;99632.72;;;3.04;66.63
9423;BME280;65863;49.506;10.400;2023-02-04T11:04:26;99782.97;;;4.08;66.77
9423;BME280;65863;49.506;10.400;2023-02-04T11:07:11;99839.63;;;4.81;66.96
9423;BME280;65863;49.506;10.400;2023-02-04T11:09:56;99785.66;;;4.45;66.42
9423;BME280;65863;49.506;10.400;2023-02-04T11:15:48;99795.91;;;4.11;66.41
9423;BME280;65863;49.506;10.400;2023-02-04T11:18:43;99811.34;;;3.94;66.54
9423;BME280;65863;49.506;10.400;2023-02-04T11:21:49;99853.00;;;4.50;67.18
9423;BME280;65863;49.506;10.400;2023-02-04T11:24:33;99842.50;;;4.44;67.36
9423;BME280;65863;49.506;10.400;2023-02-04T11:27:22;99843.56;;;4.56;67.24
9423;BME280;65863;49.506;10.400;2023-02-04T11:30:20;99858.34;;;4.81;67.17
9423;BME280;65863;49.506;10.400;2023-02-04T11:33:05;99840.00;;;4.65;67.10
9423;BME280;65863;49.506;10.400;2023-02-04T11:36:06;99779.81;;;4.25;67.19
9423;BME280;65863;49.506;10.400;2023-02-04T11:38:50;99797.41;;;4.40;67.29
9423;BME280;65863;49.506;10.400;2023-02-04T11:41:34;99781.19;;;4.39;67.44
9423;BME280;65863;49.506;10.400;2023-02-04T11:44:18;99813.00;;;4.47;67.56
9423;BME280;65863;49.506;10.400;2023-02-04T11:47:06;99834.44;;;4.56;67.38
9423;BME280;65863;49.506;10.400;2023-02-04T11:50:01;99846.19;;;4.60;67.31
9423;BME280;65863;49.506;10.400;2023-02-04T11:52:45;99781.56;;;4.13;67.60
9423;BME280;65863;49.506;10.400;2023-02-04T11:55:31;99831.53;;;4.50;67.92
9423;BME280;65863;49.506;10.400;2023-02-04T11:58:19;99854.22;;;4.58;68.05
9423;BME280;65863;49.506;10.400;2023-02-04T12:01:18;99846.50;;;4.53;68.31
9423;BME280;65863;49.506;10.400;2023-02-04T12:04:06;99765.38;;;3.93;68.50
9423;BME280;65863;49.506;10.400;2023-02-04T12:06:59;99823.34;;;4.46;68.49
9423;BME280;65863;49.506;10.400;2023-02-04T12:09:47;99599.56;;;3.10;68.17
9423;BME280;65863;49.506;10.400;2023-02-04T12:12:43;99811.25;;;4.59;68.05
9423;BME280;65863;49.506;10.400;2023-02-04T12:15:33;99705.19;;;3.81;67.49
9423;BME280;65863;49.506;10.400;2023-02-04T12:18:20;99789.09;;;4.22;67.05
9423;BME280;65863;49.506;10.400;2023-02-04T12:21:04;99765.50;;;4.17;66.96
9423;BME280;65863;49.506;10.400;2023-02-04T12:23:48;99843.31;;;4.88;66.40
9423;BME280;65863;49.506;10.400;2023-02-04T12:26:32;99841.78;;;4.87;65.49
9423;BME280;65863;49.506;10.400;2023-02-04T12:29:16;99851.00;;;4.59;65.66
9423;BME280;65863;49.506;10.400;2023-02-04T12:32:00;99777.38;;;4.18;65.51
9423;BME280;65863;49.506;10.400;2023-02-04T12:34:44;99760.72;;;3.99;65.18
9423;BME280;65863;49.506;10.400;2023-02-04T12:37:28;99757.03;;;3.93;65.45
9423;BME280;65863;49.506;10.400;2023-02-04T12:40:17;99835.53;;;4.58;65.33
9423;BME280;65863;49.506;10.400;2023-02-04T12:43:01;99869.94;;;4.79;65.73
9423;BME280;65863;49.506;10.400;2023-02-04T12:45:46;99748.38;;;4.00;65.53
9423;BME280;65863;49.506;10.400;2023-02-04T12:48:32;99848.38;;;4.46;65.84
9423;BME280;65863;49.506;10.400;2023-02-04T12:51:16;99841.13;;;4.40;66.14
9423;BME280;65863;49.506;10.400;2023-02-04T12:54:00;99800.09;;;3.88;66.32
9423;BME280;65863;49.506;10.400;2023-02-04T12:56:44;99847.03;;;4.05;66.98
9423;BME280;65863;49.506;10.400;2023-02-04T12:59:29;99802.88;;;3.79;66.72
9423;BME280;65863;49.506;10.400;2023-02-04T13:02:14;99885.16;;;4.41;67.29
9423;BME280;65863;49.506;10.400;2023-02-04T13:05:00;99766.16;;;3.84;67.43
9423;BME280;65863;49.506;10.400;2023-02-04T13:07:44;99797.03;;;3.95;67.51
9423;BME280;65863;49.506;10.400;2023-02-04T13:10:29;99868.47;;;4.41;67.56
9423;BME280;65863;49.506;10.400;2023-02-04T13:13:15;99883.47;;;4.44;67.30
9423;BME280;65863;49.506;10.400;2023-02-04T13:15:59;99820.94;;;3.93;67.52
9423;BME280;65863;49.506;10.400;2023-02-04T13:18:43;99702.41;;;3.16;67.50
9423;BME280;65863;49.506;10.400;2023-02-04T13:21:29;99805.97;;;3.72;67.70
9423;BME280;65863;49.506;10.400;2023-02-04T13:24:15;99758.13;;;3.58;67.76
9423;BME280;65863;49.506;10.400;2023-02-04T13:27:00;99731.44;;;3.33;67.52
9423;BME280;65863;49.506;10.400;2023-02-04T13:29:45;99876.50;;;4.21;67.63
9423;BME280;65863;49.506;10.400;2023-02-04T13:32:29;99842.84;;;4.09;67.82
9423;BME280;65863;49.506;10.400;2023-02-04T13:35:13;99757.50;;;3.64;68.02
9423;BME280;65863;49.506;10.400;2023-02-04T13:37:57;99858.41;;;4.53;67.53
9423;BME280;65863;49.506;10.400;2023-02-04T13:40:41;99684.53;;;3.26;66.87
9423;BME280;65863;49.506;10.400;2023-02-04T13:43:25;99893.66;;;4.47;66.38
9423;BME280;65863;49.506;10.400;2023-02-04T13:46:09;99860.44;;;4.25;65.55
9423;BME280;65863;49.506;10.400;2023-02-04T13:48:53;99771.25;;;3.67;65.31
9423;BME280;65863;49.506;10.400;2023-02-04T13:51:37;99861.47;;;4.74;65.88
9423;BME280;65863;49.506;10.400;2023-02-04T13:54:21;99888.56;;;5.40;65.22
9423;BME280;65863;49.506;10.400;2023-02-04T13:57:05;99891.88;;;5.29;63.93
9423;BME280;65863;49.506;10.400;2023-02-04T13:59:49;99830.06;;;4.73;63.25
9423;BME280;65863;49.506;10.400;2023-02-04T14:02:33;99885.91;;;5.12;63.41
9423;BME280;65863;49.506;10.400;2023-02-04T14:05:17;99868.25;;;4.82;62.57
9423;BME280;65863;49.506;10.400;2023-02-04T14:08:01;99883.38;;;4.81;62.95
9423;BME280;65863;49.506;10.400;2023-02-04T14:10:45;99860.75;;;4.36;62.48
9423;BME280;65863;49.506;10.400;2023-02-04T14:13:30;99728.94;;;3.82;62.86
9423;BME280;65863;49.506;10.400;2023-02-04T14:16:13;99879.84;;;4.71;62.53
9423;BME280;65863;49.506;10.400;2023-02-04T14:18:57;99929.81;;;4.38;62.23
9423;BME280;65863;49.506;10.400;2023-02-04T14:21:42;99814.75;;;3.98;62.89
9423;BME280;65863;49.506;10.400;2023-02-04T14:24:26;99896.91;;;4.36;62.56
9423;BME280;65863;49.506;10.400;2023-02-04T14:27:10;99917.72;;;4.78;62.91
9423;BME280;65863;49.506;10.400;2023-02-04T14:29:54;99887.47;;;4.15;62.08
9423;BME280;65863;49.506;10.400;2023-02-04T14:32:38;99890.88;;;4.38;62.48
9423;BME280;65863;49.506;10.400;2023-02-04T14:35:23;99816.44;;;3.77;62.40
9423;BME280;65863;49.506;10.400;2023-02-04T14:38:07;99887.66;;;4.30;62.38
9423;BME280;65863;49.506;10.400;2023-02-04T14:40:51;99906.94;;;4.34;62.76
9423;BME280;65863;49.506;10.400;2023-02-04T14:43:35;99896.59;;;4.25;62.95
9423;BME280;65863;49.506;10.400;2023-02-04T14:46:20;99879.31;;;4.11;62.97
9423;BME280;65863;49.506;10.400;2023-02-04T14:49:03;99914.22;;;4.31;63.19
9423;BME280;65863;49.506;10.400;2023-02-04T14:51:47;99908.03;;;4.27;63.43
9423;BME280;65863;49.506;10.400;2023-02-04T14:54:31;99848.09;;;3.79;63.34